Time;durP1;ratioP1;P1;durP2;ratioP2;P2;SDS_P1;SDS_P2;PMS_P1;PMS_P2;Temp;Humidity;BMP_temperature;BMP_pressure;BME280_temperature;BME280_humidity;BME280_pressure;Samples;Min_cycle;Max_cycle;Signal;HPM_P1;HPM_P2
2022/12/10 00:02:01;;;;;;;34.80;20.65;;;;;;;5.71;67.95;100092.98;1797913;80;21014;-72
2022/12/10 00:04:27;;;;;;;33.02;20.60;;;;;;;5.71;67.80;100096.95;1777953;79;20941;-72
2022/12/10 00:06:54;;;;;;;32.73;20.82;;;;;;;5.74;67.80;100102.58;1764317;80;21263;-72
2022/12/10 00:09:21;;;;;;;29.42;18.67;;;;;;;5.75;67.66;100094.91;1775947;79;21018;-72
2022/12/10 00:11:48;;;;;;;29.23;17.75;;;;;;;5.76;67.47;100099.69;1735424;82;21118;-73
2022/12/10 00:14:14;;;;;;;29.87;18.25;;;;;;;5.65;67.26;100096.05;1752637;80;20986;-73
2022/12/10 00:16:41;;;;;;;29.77;18.00;;;;;;;5.54;67.27;100092.92;1765257;79;20972;-72
2022/12/10 00:19:07;;;;;;;28.65;17.27;;;;;;;5.44;67.29;100087.42;1782738;80;21096;-71
2022/12/10 00:21:35;;;;;;;26.42;16.85;;;;;;;5.31;67.41;100078.69;1766009;80;21133;-72
2022/12/10 00:24:02;;;;;;;25.20;16.48;;;;;;;5.26;67.60;100075.92;1732920;81;21023;-72
2022/12/10 00:26:32;;;;;;;27.27;17.45;;;;;;;5.19;67.60;100072.61;1771218;80;20997;-72
2022/12/10 00:29:01;;;;;;;27.50;17.80;;;;;;;5.09;67.71;100071.07;1758814;80;21007;-72
2022/12/10 00:31:31;;;;;;;26.77;17.87;;;;;;;5.06;67.85;100070.20;1751395;81;21258;-72
2022/12/10 00:34:01;;;;;;;25.85;17.23;;;;;;;5.06;68.01;100067.56;1762010;80;21013;-72
2022/12/10 00:36:35;;;;;;;25.57;16.85;;;;;;;5.06;68.07;100051.16;1789216;79;21127;-72
2022/12/10 00:39:02;;;;;;;23.90;15.45;;;;;;;5.00;68.11;100047.31;1765144;79;21001;-71
2022/12/10 00:41:29;;;;;;;24.98;16.20;;;;;;;4.93;68.23;100037.65;1763697;81;21089;-71
2022/12/10 00:43:57;;;;;;;26.37;17.42;;;;;;;4.89;68.33;100044.45;1758928;79;21122;-72
2022/12/10 00:46:25;;;;;;;24.12;16.17;;;;;;;4.82;68.51;100032.39;1726887;82;21104;-72
2022/12/10 00:48:52;;;;;;;24.80;15.95;;;;;;;4.78;68.73;100025.44;1733362;82;20986;-72
2022/12/10 00:51:21;;;;;;;22.15;14.53;;;;;;;4.75;68.92;100013.19;1736393;80;21026;-72
2022/12/10 00:53:51;;;;;;;24.55;16.32;;;;;;;4.75;69.01;100008.70;1771444;79;21049;-72
2022/12/10 00:56:25;;;;;;;26.35;16.45;;;;;;;4.72;69.16;100003.88;1750887;81;21088;-71
2022/12/10 00:58:51;;;;;;;23.20;15.15;;;;;;;4.67;69.36;99998.45;1750553;81;20969;-71
2022/12/10 01:01:25;;;;;;;25.90;16.50;;;;;;;4.67;69.60;99997.97;1751566;82;21047;-71
2022/12/10 01:03:59;;;;;;;25.35;15.95;;;;;;;4.66;69.71;99996.86;1764642;80;20950;-71
2022/12/10 01:06:31;;;;;;;21.90;14.45;;;;;;;4.67;69.85;99982.58;1763643;81;20998;-72
2022/12/10 01:09:02;;;;;;;22.80;15.32;;;;;;;4.66;69.96;99975.17;1763528;81;21512;-72
2022/12/10 01:11:32;;;;;;;24.55;16.70;;;;;;;4.65;70.16;99972.25;1761691;81;20978;-71
2022/12/10 01:13:59;;;;;;;22.67;15.55;;;;;;;4.66;70.31;99971.20;1766436;81;21006;-71
2022/12/10 01:16:26;;;;;;;22.52;14.68;;;;;;;4.71;70.46;99966.55;1768907;80;21006;-72
2022/12/10 01:18:57;;;;;;;21.35;14.13;;;;;;;4.75;70.55;99954.46;1763848;81;20986;-72
2022/12/10 01:21:24;;;;;;;19.82;13.05;;;;;;;4.79;70.53;99968.83;1763354;79;21238;-72
2022/12/10 01:23:51;;;;;;;18.85;12.70;;;;;;;4.89;70.71;99985.44;1763713;81;20982;-72
2022/12/10 01:26:26;;;;;;;19.73;13.68;;;;;;;5.02;70.85;99981.73;1763775;81;21124;-71
2022/12/10 01:28:54;;;;;;;19.62;13.35;;;;;;;5.13;70.89;99966.32;1762238;79;21010;-70
2022/12/10 01:31:29;;;;;;;20.08;12.37;;;;;;;5.25;70.91;99960.47;1773394;80;21072;-70
2022/12/10 01:33:57;;;;;;;18.98;12.53;;;;;;;5.34;70.83;99955.61;1772964;80;21630;-70
2022/12/10 01:36:30;;;;;;;17.77;11.83;;;;;;;5.36;70.59;99948.22;1764555;80;22168;-70
2022/12/10 01:38:57;;;;;;;18.00;11.45;;;;;;;5.40;70.59;99950.17;1772261;79;21140;-70
2022/12/10 01:41:30;;;;;;;17.73;11.43;;;;;;;5.48;70.60;99952.14;1768775;80;21098;-70
2022/12/10 01:44:01;;;;;;;13.75;9.28;;;;;;;5.53;70.52;99954.90;1766246;80;21057;-71
2022/12/10 01:46:35;;;;;;;14.18;9.30;;;;;;;5.59;70.39;99944.64;1764410;81;21552;-71
2022/12/10 01:49:07;;;;;;;14.47;9.80;;;;;;;5.59;70.27;99939.34;1779926;79;20962;-70
2022/12/10 01:51:36;;;;;;;15.03;8.55;;;;;;;5.58;70.22;99935.10;1769448;80;21038;-70
2022/12/10 01:54:05;;;;;;;13.22;9.50;;;;;;;5.56;70.18;99934.53;1766568;80;20998;-70
2022/12/10 01:56:36;;;;;;;13.85;9.00;;;;;;;5.48;70.26;99927.78;1770700;79;21013;-70
2022/12/10 01:59:03;;;;;;;14.70;10.05;;;;;;;5.40;70.34;99928.98;1782430;80;21191;-70
2022/12/10 02:01:50;;;;;;;12.43;8.58;;;;;;;5.39;70.29;99914.64;1770729;80;21049;-70
2022/12/10 02:04:40;;;;;;;13.85;9.35;;;;;;;5.33;70.27;99902.34;1759083;81;20963;-70
2022/12/10 02:07:17;;;;;;;13.30;8.20;;;;;;;5.24;70.29;99896.66;1797658;78;21042;-72
2022/12/10 02:10:06;;;;;;;13.48;8.75;;;;;;;5.16;70.31;99892.52;1786480;80;21003;-71
2022/12/10 02:12:41;;;;;;;14.18;9.83;;;;;;;5.10;70.33;99897.96;1730719;82;21066;-71
2022/12/10 02:15:22;;;;;;;16.27;10.20;;;;;;;5.14;70.50;99896.47;1731717;81;21022;-70
2022/12/10 02:17:56;;;;;;;14.83;9.90;;;;;;;5.18;70.55;99894.95;1764154;80;21104;-71
2022/12/10 02:20:36;;;;;;;15.70;9.73;;;;;;;5.18;70.50;99895.75;1762814;80;21023;-72
2022/12/10 02:23:16;;;;;;;15.48;9.10;;;;;;;5.16;70.48;99887.23;1725175;81;20989;-70
2022/12/10 02:26:00;;;;;;;14.20;9.28;;;;;;;5.12;70.45;99883.98;1766449;81;21437;-71
2022/12/10 02:29:12;;;;;;;14.83;9.15;;;;;;;5.08;70.44;99881.01;1756147;81;21041;-71
2022/12/10 02:31:44;;;;;;;14.60;9.50;;;;;;;5.00;70.46;99870.81;1734135;81;21007;-70
2022/12/10 02:34:10;;;;;;;12.13;7.37;;;;;;;4.97;70.66;99867.81;1782374;80;21064;-69
2022/12/10 02:36:39;;;;;;;10.80;7.15;;;;;;;4.96;70.74;99867.02;1714827;81;21094;-69
2022/12/10 02:39:09;;;;;;;13.58;9.20;;;;;;;4.92;70.72;99868.53;1758711;81;21914;-70
2022/12/10 02:41:42;;;;;;;16.35;9.83;;;;;;;4.87;70.80;99864.45;1739618;81;21527;-70
2022/12/10 02:44:11;;;;;;;16.77;9.98;;;;;;;4.91;70.99;99860.32;1758327;81;21041;-71
2022/12/10 02:46:39;;;;;;;12.82;8.53;;;;;;;4.93;71.07;99859.02;1734379;81;21058;-69
2022/12/10 02:49:07;;;;;;;14.10;9.35;;;;;;;4.98;71.08;99853.56;1757965;81;20966;-70
2022/12/10 02:51:35;;;;;;;14.30;9.68;;;;;;;4.99;71.05;99857.28;1753552;80;21300;-70
2022/12/10 02:54:07;;;;;;;15.28;9.70;;;;;;;5.00;71.01;99856.75;1790149;79;21049;-71
2022/12/10 02:56:40;;;;;;;14.45;8.88;;;;;;;5.01;71.01;99851.23;1777882;79;20963;-70
2022/12/10 02:59:18;;;;;;;15.48;9.30;;;;;;;4.95;71.01;99844.24;1806233;79;21125;-69
2022/12/10 03:01:55;;;;;;;12.63;8.68;;;;;;;4.98;70.85;99841.13;1735826;82;20934;-69
2022/12/10 03:05:06;;;;;;;11.45;8.00;;;;;;;4.87;71.00;99845.44;1745863;81;21073;-69
2022/12/10 03:08:08;;;;;;;12.98;8.68;;;;;;;4.93;70.97;99837.05;1763279;81;21014;-69
2022/12/10 03:10:46;;;;;;;13.00;8.53;;;;;;;4.80;71.23;99841.31;1760892;80;20946;-70
2022/12/10 03:13:15;;;;;;;11.80;7.72;;;;;;;4.81;71.38;99849.03;1757841;79;21126;-69
2022/12/10 03:15:41;;;;;;;12.43;8.93;;;;;;;4.85;71.39;99859.41;1747752;82;21011;-70
2022/12/10 03:18:09;;;;;;;17.75;9.73;;;;;;;4.92;71.16;99853.45;1764230;80;21891;-70
2022/12/10 03:20:39;;;;;;;15.40;9.80;;;;;;;4.96;71.20;99855.63;1792800;80;20999;-70
2022/12/10 03:23:09;;;;;;;15.55;9.68;;;;;;;4.92;71.37;99850.01;1789130;79;20955;-69
2022/12/10 03:25:36;;;;;;;14.58;9.83;;;;;;;4.87;71.38;99849.41;1765638;80;21415;-69
2022/12/10 03:28:03;;;;;;;14.35;9.63;;;;;;;4.79;71.36;99835.74;1766000;80;20961;-70
2022/12/10 03:30:32;;;;;;;14.50;9.85;;;;;;;4.77;71.49;99825.91;1766606;80;21166;-69
2022/12/10 03:32:58;;;;;;;16.23;11.10;;;;;;;4.85;71.26;99821.57;1765815;80;21029;-68
2022/12/10 03:35:25;;;;;;;16.80;10.70;;;;;;;4.75;71.35;99818.74;1766988;80;21065;-69
2022/12/10 03:37:51;;;;;;;16.17;10.45;;;;;;;4.70;71.48;99812.81;1792644;80;21003;-69
2022/12/10 03:40:22;;;;;;;18.82;11.65;;;;;;;4.66;71.49;99819.10;1793006;80;21076;-69
2022/12/10 03:42:48;;;;;;;18.55;10.58;;;;;;;4.65;71.62;99824.12;1776523;79;21119;-69
2022/12/10 03:45:16;;;;;;;20.75;13.20;;;;;;;4.69;71.71;99813.87;1773303;80;20945;-68
2022/12/10 03:47:43;;;;;;;23.10;13.43;;;;;;;4.65;71.72;99808.25;1791342;80;21042;-69
2022/12/10 03:50:10;;;;;;;22.70;13.22;;;;;;;4.69;71.79;99805.94;1766757;79;21113;-69
2022/12/10 03:52:38;;;;;;;20.97;13.25;;;;;;;4.73;71.80;99813.67;1770722;81;21054;-69
2022/12/10 03:55:06;;;;;;;22.40;14.10;;;;;;;4.75;71.82;99806.84;1767876;80;21243;-69
2022/12/10 03:57:34;;;;;;;25.12;16.02;;;;;;;4.77;71.82;99805.57;1766035;81;21096;-70
2022/12/10 04:00:03;;;;;;;20.40;12.35;;;;;;;4.78;71.83;99805.05;1759803;81;21053;-69
2022/12/10 04:02:32;;;;;;;25.02;15.32;;;;;;;4.77;71.73;99804.24;1735888;81;21009;-69
2022/12/10 04:04:58;;;;;;;24.37;14.85;;;;;;;4.73;71.67;99807.06;1780587;80;20939;-70
2022/12/10 04:07:25;;;;;;;28.55;16.93;;;;;;;4.71;71.73;99799.90;1746166;82;21949;-70
2022/12/10 04:09:52;;;;;;;31.75;16.93;;;;;;;4.70;71.74;99801.74;1748200;81;21015;-70
2022/12/10 04:12:19;;;;;;;25.43;15.88;;;;;;;4.73;71.83;99802.30;1741880;80;21106;-69
2022/12/10 04:17:33;;;;;;;20.37;13.35;;;;;;;4.78;71.79;99799.75;1765912;81;21038;-70
2022/12/10 04:20:00;;;;;;;19.73;12.95;;;;;;;4.73;71.84;99789.86;1765874;81;21195;-71
2022/12/10 04:27:57;;;;;;;17.15;11.68;;;;;;;4.65;72.01;99792.91;1785896;79;21090;-68
2022/12/10 04:30:24;;;;;;;19.60;11.53;;;;;;;4.66;71.97;99775.98;1782561;79;20997;-69
2022/12/10 04:32:50;;;;;;;17.32;11.25;;;;;;;4.64;71.97;99772.27;1784169;79;21037;-70
2022/12/10 04:35:17;;;;;;;16.45;10.90;;;;;;;4.70;71.73;99764.71;1767914;80;20979;-69
2022/12/10 04:37:43;;;;;;;15.68;10.70;;;;;;;4.71;71.52;99761.54;1792898;79;21081;-69
2022/12/10 04:40:11;;;;;;;15.98;11.00;;;;;;;4.69;71.46;99769.70;1803892;79;21037;-69
2022/12/10 04:42:38;;;;;;;17.35;11.60;;;;;;;4.57;71.75;99766.81;1795590;79;22055;-70
2022/12/10 04:45:06;;;;;;;15.95;10.93;;;;;;;4.55;71.78;99751.72;1764546;80;21320;-70
2022/12/10 04:47:33;;;;;;;18.48;12.05;;;;;;;4.52;71.82;99749.55;1767624;80;21022;-70
2022/12/10 04:50:00;;;;;;;15.88;10.32;;;;;;;4.43;71.82;99747.27;1792720;80;21499;-69
2022/12/10 04:52:26;;;;;;;14.87;10.53;;;;;;;4.40;71.94;99742.45;1783050;80;21101;-69
2022/12/10 04:54:53;;;;;;;15.72;10.90;;;;;;;4.40;71.96;99733.72;1766330;80;21084;-69
2022/12/10 04:57:20;;;;;;;16.60;10.78;;;;;;;4.39;72.05;99730.28;1774932;79;21151;-69
2022/12/10 04:59:46;;;;;;;16.27;10.63;;;;;;;4.39;72.16;99726.31;1792731;80;20949;-69
2022/12/10 05:02:13;;;;;;;11.28;7.75;;;;;;;4.40;72.18;99717.33;1792501;80;21051;-69
2022/12/10 05:04:39;;;;;;;12.23;9.00;;;;;;;4.41;72.23;99717.64;1782847;80;21037;-70
2022/12/10 05:07:06;;;;;;;14.07;9.63;;;;;;;4.40;72.20;99721.30;1789638;79;21512;-69
2022/12/10 05:09:33;;;;;;;13.83;9.60;;;;;;;4.41;72.25;99710.23;1780682;79;21134;-70
2022/12/10 05:12:00;;;;;;;14.13;8.53;;;;;;;4.42;72.30;99709.18;1771157;80;20930;-67
2022/12/10 05:14:27;;;;;;;14.38;10.20;;;;;;;4.49;72.24;99718.29;1776966;79;20952;-69
2022/12/10 05:16:54;;;;;;;12.03;8.65;;;;;;;4.41;72.21;99720.28;1795689;79;21086;-69
2022/12/10 05:19:21;;;;;;;12.60;8.78;;;;;;;4.39;72.28;99714.41;1749010;81;20992;-70
2022/12/10 05:24:34;;;;;;;10.98;8.33;;;;;;;4.32;72.35;99703.70;1781245;79;21124;-69
2022/12/10 05:27:00;;;;;;;12.40;8.58;;;;;;;4.28;72.48;99699.91;1784921;79;21014;-69
2022/12/10 05:29:27;;;;;;;12.43;8.40;;;;;;;4.33;72.56;99694.73;1781818;79;21010;-69
2022/12/10 05:31:53;;;;;;;11.73;8.30;;;;;;;4.34;72.53;99691.84;1787491;79;20952;-69
2022/12/10 05:34:20;;;;;;;11.65;7.90;;;;;;;4.30;72.52;99690.71;1789499;79;21224;-69
2022/12/10 05:36:46;;;;;;;10.13;7.65;;;;;;;4.31;72.62;99696.30;1788822;80;21125;-68
2022/12/10 05:39:13;;;;;;;10.82;7.95;;;;;;;4.33;72.68;99695.53;1764927;81;21015;-69
2022/12/10 05:41:40;;;;;;;10.35;7.58;;;;;;;4.38;72.69;99685.58;1766203;79;20999;-69
2022/12/10 05:44:07;;;;;;;11.15;7.75;;;;;;;4.37;72.61;99685.28;1762903;79;20943;-69
2022/12/10 05:46:35;;;;;;;11.18;7.53;;;;;;;4.37;72.63;99672.06;1771314;79;21212;-69
2022/12/10 05:49:04;;;;;;;11.18;7.92;;;;;;;4.48;72.50;99679.15;1754914;79;21552;-70
2022/12/10 05:51:32;;;;;;;10.40;7.87;;;;;;;4.55;72.30;99679.80;1794964;79;21075;-68
2022/12/10 05:53:59;;;;;;;11.53;7.62;;;;;;;4.55;72.26;99674.50;1788238;80;21531;-68
2022/12/10 05:56:25;;;;;;;10.15;6.83;;;;;;;4.56;72.19;99677.95;1772174;80;21489;-68
2022/12/10 05:58:55;;;;;;;10.03;7.28;;;;;;;4.58;72.16;99678.00;1770607;80;21761;-68
2022/12/10 06:01:24;;;;;;;12.23;7.78;;;;;;;4.62;72.16;99661.12;1727188;81;21478;-67
2022/12/10 06:03:52;;;;;;;10.10;6.97;;;;;;;4.67;72.16;99658.55;1745963;81;21014;-68
2022/12/10 06:06:25;;;;;;;10.95;7.42;;;;;;;4.67;72.07;99650.13;1734457;82;21466;-68
2022/12/10 06:08:51;;;;;;;9.25;6.33;;;;;;;4.68;72.08;99659.65;1706048;81;21007;-68
2022/12/10 06:11:20;;;;;;;10.25;6.90;;;;;;;4.70;71.97;99663.36;1746061;80;21070;-68
2022/12/10 06:13:46;;;;;;;9.28;6.67;;;;;;;4.70;71.93;99647.00;1743619;79;21007;-69
2022/12/10 06:16:14;;;;;;;8.98;6.53;;;;;;;4.70;71.90;99644.84;1750033;80;21030;-69
2022/12/10 06:18:41;;;;;;;9.08;6.58;;;;;;;4.68;71.84;99637.69;1763581;80;21038;-69
2022/12/10 06:21:10;;;;;;;10.20;6.78;;;;;;;4.66;71.84;99637.12;1774455;80;21472;-69
2022/12/10 06:23:38;;;;;;;10.65;6.85;;;;;;;4.66;71.82;99639.23;1753557;80;21776;-69
2022/12/10 06:26:15;;;;;;;8.95;6.83;;;;;;;4.68;71.90;99649.06;1734059;82;20972;-68
2022/12/10 06:28:43;;;;;;;10.55;6.80;;;;;;;4.72;71.96;99646.74;1760762;80;20967;-68
2022/12/10 06:31:10;;;;;;;7.97;6.08;;;;;;;4.74;71.92;99639.38;1734074;82;21098;-69
2022/12/10 06:33:37;;;;;;;9.30;6.40;;;;;;;4.81;71.91;99645.83;1758360;81;20959;-69
2022/12/10 06:36:08;;;;;;;9.38;6.55;;;;;;;4.88;71.90;99645.94;1743610;81;21151;-67
2022/12/10 06:38:35;;;;;;;;;;;;;;;4.94;71.90;99652.91;1774024;80;21465;-68
2022/12/10 06:41:04;;;;;;;8.25;6.42;;;;;;;4.87;72.09;99646.16;1731035;83;20438;-68
2022/12/10 06:43:31;;;;;;;9.10;6.25;;;;;;;4.87;72.09;99640.38;1749314;81;20998;-68
2022/12/10 06:45:59;;;;;;;8.15;6.10;;;;;;;4.85;71.96;99645.63;1769915;80;21096;-68
2022/12/10 06:48:25;;;;;;;9.50;6.80;;;;;;;4.86;71.98;99650.66;1760412;80;21772;-68
2022/12/10 06:50:51;;;;;;;8.78;6.22;;;;;;;4.79;72.34;99643.41;1727871;81;21535;-69
2022/12/10 06:53:20;;;;;;;8.70;6.35;;;;;;;4.80;72.58;99646.33;1764871;80;21532;-68
2022/12/10 06:55:47;;;;;;;10.20;7.10;;;;;;;4.84;72.58;99641.38;1796492;79;20939;-69
2022/12/10 06:58:15;;;;;;;8.28;6.40;;;;;;;5.00;72.22;99646.36;1768190;80;21067;-69
2022/12/10 07:00:41;;;;;;;8.35;6.17;;;;;;;5.08;71.98;99628.76;1761411;81;21127;-69
2022/12/10 07:03:07;;;;;;;8.35;5.95;;;;;;;5.14;71.81;99621.17;1763401;80;21095;-69
2022/12/10 07:05:34;;;;;;;8.50;6.08;;;;;;;5.23;71.52;99614.42;1773659;80;21584;-69
2022/12/10 07:08:00;;;;;;;7.65;5.55;;;;;;;5.20;71.50;99622.84;1760401;81;21045;-69
2022/12/10 07:10:28;;;;;;;8.08;5.70;;;;;;;5.22;71.36;99619.41;1766914;80;21053;-69
2022/12/10 07:12:56;;;;;;;6.85;5.20;;;;;;;5.24;71.26;99615.22;1768060;79;21149;-69
2022/12/10 07:15:23;;;;;;;8.08;5.62;;;;;;;5.31;71.08;99613.98;1731009;80;21512;-69
2022/12/10 07:17:51;;;;;;;6.50;4.92;;;;;;;5.27;71.12;99607.58;1765448;81;21089;-69
2022/12/10 08:57:58;;;;;;;9.73;6.63;;;;;;;5.39;80.25;99489.08;1827519;77;22671;-70
2022/12/10 09:00:25;;;;;;;9.20;6.17;;;;;;;5.43;79.41;99486.77;1833139;78;20853;-70
2022/12/10 09:02:52;;;;;;;9.68;5.87;;;;;;;5.57;78.82;99483.19;1826768;77;21122;-70
2022/12/10 09:05:18;;;;;;;8.63;6.05;;;;;;;5.59;78.40;99480.57;1816717;78;20864;-70
2022/12/10 09:07:45;;;;;;;9.55;6.20;;;;;;;5.79;77.79;99472.51;1838155;78;21055;-70
2022/12/10 09:10:11;;;;;;;13.48;6.83;;;;;;;5.72;77.87;99480.66;1838598;77;21466;-70
2022/12/10 09:12:38;;;;;;;9.88;6.30;;;;;;;5.73;77.87;99472.22;1835643;77;20955;-69
2022/12/10 09:15:08;;;;;;;10.90;6.42;;;;;;;5.75;77.60;99462.94;1833017;77;21631;-69
2022/12/10 09:17:36;;;;;;;12.05;6.12;;;;;;;5.78;77.35;99459.00;1832565;78;20864;-68
2022/12/10 09:20:04;;;;;;;10.28;6.80;;;;;;;5.86;77.15;99458.55;1831616;78;20940;-69
2022/12/10 09:22:32;;;;;;;12.78;7.67;;;;;;;5.87;76.90;99455.63;1831672;78;20988;-70
2022/12/10 09:24:58;;;;;;;12.65;7.25;;;;;;;5.91;76.65;99451.16;1815394;77;20975;-70
2022/12/10 09:27:25;;;;;;;12.43;7.35;;;;;;;5.93;76.43;99451.74;1779098;79;21113;-69
2022/12/10 09:29:52;;;;;;;11.95;7.10;;;;;;;5.95;76.12;99454.92;1784570;79;20988;-69
2022/12/10 09:32:18;;;;;;;12.75;8.23;;;;;;;5.95;75.89;99444.32;1780263;79;20988;-70
2022/12/10 09:34:45;;;;;;;11.68;7.72;;;;;;;5.97;75.75;99449.65;1798184;79;21051;-70
2022/12/10 09:37:11;;;;;;;10.80;7.47;;;;;;;6.02;75.62;99444.40;1773885;79;20988;-69
2022/12/10 09:39:38;;;;;;;12.63;7.05;;;;;;;6.04;75.29;99433.00;1776512;79;22297;-70
2022/12/10 09:42:35;;;;;;;10.35;6.50;;;;;;;6.03;75.07;99426.64;1779535;79;21447;-70
2022/12/10 09:45:28;;;;;;;10.65;6.55;;;;;;;6.03;74.84;99417.36;1771663;80;20960;-70
2022/12/10 09:48:34;;;;;;;12.68;6.70;;;;;;;5.98;74.52;99415.98;1777139;78;21766;-70
2022/12/10 09:51:09;;;;;;;10.93;7.05;;;;;;;5.95;74.41;99407.22;1763859;79;21024;-70
2022/12/10 09:53:36;;;;;;;10.88;6.55;;;;;;;5.88;74.11;99416.67;1778835;79;21102;-70
2022/12/10 09:56:03;;;;;;;10.15;6.90;;;;;;;5.88;74.10;99415.36;1786047;78;20980;-70
2022/12/10 09:58:32;;;;;;;13.05;6.90;;;;;;;5.91;73.98;99400.80;1793184;79;21023;-70
2022/12/10 11:58:19;;;;;;;12.90;9.13;;;;;;;5.59;82.61;99325.61;1781583;80;22675;-70
2022/12/10 12:01:07;;;;;;;13.68;9.05;;;;;;;5.67;81.68;99334.93;1724661;81;21033;-70
2022/12/10 12:03:51;;;;;;;13.85;8.80;;;;;;;5.76;80.99;99333.41;1755625;81;21134;-70
2022/12/10 12:06:35;;;;;;;12.73;9.13;;;;;;;5.85;80.42;99322.58;1702007;81;21040;-70
2022/12/10 12:09:30;;;;;;;13.85;8.85;;;;;;;5.90;79.93;99309.11;1774675;80;20892;-69
2022/12/10 12:12:11;;;;;;;14.50;9.23;;;;;;;5.96;79.28;99307.59;1751165;81;20976;-70
2022/12/10 12:14:49;;;;;;;12.90;8.78;;;;;;;5.98;78.75;99307.31;1738730;81;20941;-69
2022/12/10 12:17:30;;;;;;;14.18;9.33;;;;;;;6.01;78.59;99306.80;1725118;83;21187;-69
2022/12/10 12:20:06;;;;;;;14.13;9.95;;;;;;;6.08;78.35;99316.64;1738940;80;20989;-69
2022/12/10 12:22:38;;;;;;;17.02;10.55;;;;;;;6.15;78.25;99325.16;1706691;83;20988;-69
2022/12/10 12:25:37;;;;;;;15.40;10.08;;;;;;;6.27;78.11;99322.31;1726452;81;21029;-69
2022/12/10 12:28:22;;;;;;;14.87;10.35;;;;;;;6.39;77.99;99320.78;1755116;81;21034;-69
2022/12/10 12:30:54;;;;;;;17.23;10.75;;;;;;;6.33;78.04;99319.42;1755522;81;21783;-70
2022/12/10 12:33:52;;;;;;;17.50;11.45;;;;;;;6.47;78.05;99329.55;1733140;81;20955;-70
2022/12/10 12:36:24;;;;;;;18.52;11.65;;;;;;;6.58;77.92;99333.83;1699511;83;21058;-71
2022/12/10 12:39:03;;;;;;;17.92;10.70;;;;;;;6.70;77.76;99336.27;1744657;80;21416;-69
2022/12/10 12:41:49;;;;;;;16.42;10.95;;;;;;;6.79;77.61;99339.47;1748300;80;21057;-69
2022/12/10 12:44:57;;;;;;;16.77;10.98;;;;;;;6.97;77.05;99336.05;1754444;81;21213;-69
2022/12/10 12:47:41;;;;;;;18.98;11.70;;;;;;;6.98;76.71;99328.38;1728482;83;20960;-70
2022/12/10 12:50:19;;;;;;;15.98;10.93;;;;;;;6.98;76.52;99335.81;1725955;81;21008;-70
2022/12/10 12:52:51;;;;;;;13.53;10.03;;;;;;;6.97;76.22;99324.91;1742031;81;21024;-71
2022/12/10 12:55:21;;;;;;;;;;;;;;;6.97;75.96;99325.44;1737014;82;21481;-69
2022/12/10 12:58:12;;;;;;;13.45;9.63;;;;;;;6.98;75.83;99318.55;1734013;81;21160;-70
2022/12/10 13:00:39;;;;;;;15.20;10.08;;;;;;;7.01;75.68;99316.70;1673685;83;21146;-70
2022/12/10 13:03:17;;;;;;;15.45;10.72;;;;;;;7.04;75.38;99325.97;1725796;81;21020;-69
2022/12/10 13:05:44;;;;;;;14.13;10.20;;;;;;;7.03;75.18;99313.23;1704193;82;21185;-71
2022/12/10 13:08:25;;;;;;;14.90;9.10;;;;;;;7.10;74.77;99313.51;1726058;81;21514;-71
2022/12/10 13:11:21;;;;;;;15.25;9.88;;;;;;;7.09;74.34;99315.91;1735029;81;21182;-71
2022/12/10 13:14:08;;;;;;;15.98;10.65;;;;;;;7.07;74.18;99308.19;1756566;81;21026;-71
2022/12/10 13:16:47;;;;;;;13.85;10.35;;;;;;;7.04;73.94;99320.66;1758571;79;21410;-71
2022/12/10 13:19:22;;;;;;;15.50;10.40;;;;;;;7.04;73.84;99321.98;1784427;80;21031;-70
2022/12/10 13:22:06;;;;;;;16.20;10.10;;;;;;;7.02;73.71;99325.45;1724671;81;20974;-70
2022/12/10 13:24:44;;;;;;;16.95;10.78;;;;;;;7.00;73.73;99334.20;1747672;80;21568;-70
2022/12/10 13:27:33;;;;;;;14.28;10.45;;;;;;;6.97;73.73;99326.77;1742405;80;20942;-69
2022/12/10 13:30:35;;;;;;;18.25;10.32;;;;;;;7.04;73.62;99332.61;1754586;80;20939;-69
2022/12/10 13:33:20;;;;;;;14.68;10.00;;;;;;;6.98;73.59;99328.38;1757349;81;20944;-69
2022/12/10 13:35:58;;;;;;;17.25;11.83;;;;;;;6.94;73.69;99333.92;1721911;82;21048;-69
2022/12/10 13:38:26;;;;;;;17.77;12.63;;;;;;;6.98;73.67;99337.67;1698365;82;21268;-69
2022/12/10 13:47:12;;;;;;;17.32;11.90;;;;;;;6.99;73.37;99322.79;1756940;81;21022;-69
2022/12/10 13:49:57;;;;;;;16.73;12.28;;;;;;;6.92;73.24;99328.89;1727518;83;21094;-69
2022/12/10 13:52:55;;;;;;;20.43;13.03;;;;;;;6.92;73.14;99340.04;1753511;81;21116;-71
2022/12/10 13:55:28;;;;;;;18.25;12.55;;;;;;;6.90;73.10;99341.62;1735325;80;21474;-71
2022/12/10 13:58:12;;;;;;;17.67;12.55;;;;;;;6.90;73.10;99335.52;1755880;80;21050;-70
2022/12/10 14:00:56;;;;;;;20.00;14.00;;;;;;;7.01;72.78;99340.59;1762149;80;21599;-71
2022/12/10 14:03:50;;;;;;;20.77;13.32;;;;;;;7.06;72.54;99347.76;1740596;80;21410;-69
2022/12/10 14:17:20;;;;;;;22.10;15.07;;;;;;;7.74;71.52;99338.22;1778676;80;22760;-69
2022/12/10 14:19:49;;;;;;;22.00;15.80;;;;;;;7.83;70.96;99338.45;1769133;81;21488;-70
2022/12/10 14:22:24;;;;;;;23.73;16.10;;;;;;;7.81;70.80;99344.59;1768459;81;21676;-69
2022/12/10 14:24:50;;;;;;;24.57;16.25;;;;;;;7.69;71.04;99349.64;1709781;83;20927;-69
2022/12/10 14:27:21;;;;;;;25.77;15.93;;;;;;;7.75;70.80;99343.80;1755290;81;21027;-70
2022/12/10 14:29:50;;;;;;;28.38;16.60;;;;;;;7.74;70.69;99340.34;1750707;81;21127;-70
2022/12/10 14:32:20;;;;;;;25.75;17.27;;;;;;;7.66;70.62;99342.20;1704720;84;21062;-69
2022/12/10 14:34:53;;;;;;;24.27;17.27;;;;;;;7.63;70.59;99342.73;1755225;81;21091;-69
2022/12/10 14:37:20;;;;;;;26.20;17.27;;;;;;;7.52;70.69;99341.94;1720971;83;21009;-70
2022/12/10 14:39:46;;;;;;;26.23;17.45;;;;;;;7.53;70.71;99344.06;1747418;81;21061;-70
2022/12/10 14:42:15;;;;;;;30.50;18.50;;;;;;;7.53;70.55;99349.38;1738204;81;21033;-70
2022/12/10 14:44:42;;;;;;;28.15;18.70;;;;;;;7.43;70.68;99345.39;1699221;81;21022;-70
2022/12/10 14:47:18;;;;;;;26.75;18.75;;;;;;;7.44;70.61;99351.00;1736706;82;21130;-68
2022/12/10 14:49:48;;;;;;;23.47;15.50;;;;;;;7.42;70.61;99347.80;1755148;81;21017;-68
2022/12/10 14:52:24;;;;;;;22.37;15.75;;;;;;;7.36;70.61;99341.67;1733056;82;21084;-69
2022/12/10 14:54:51;;;;;;;24.98;17.02;;;;;;;7.43;70.56;99340.08;1755439;81;21508;-68
2022/12/10 14:57:25;;;;;;;23.75;15.65;;;;;;;7.45;70.43;99344.08;1753865;81;20995;-69
2022/12/10 15:00:13;;;;;;;20.65;14.90;;;;;;;7.40;70.28;99341.94;1732567;82;21246;-69
2022/12/10 15:02:44;;;;;;;22.30;15.90;;;;;;;7.34;70.19;99350.97;1755123;81;21112;-69
2022/12/10 15:05:23;;;;;;;25.60;16.30;;;;;;;7.32;70.15;99350.45;1710975;83;21013;-70
2022/12/10 15:07:58;;;;;;;21.20;13.95;;;;;;;7.27;70.40;99340.60;1734532;82;21067;-69
2022/12/10 15:10:38;;;;;;;19.87;12.95;;;;;;;7.23;70.41;99338.22;1745674;81;21010;-68
2022/12/10 15:13:06;;;;;;;16.87;11.60;;;;;;;7.17;70.24;99332.13;1705341;81;21543;-70
2022/12/10 15:15:38;;;;;;;14.65;10.68;;;;;;;7.11;70.02;99329.19;1713944;83;21560;-69
2022/12/10 15:18:10;;;;;;;19.70;11.35;;;;;;;6.98;69.93;99334.48;1715985;83;21830;-69
2022/12/10 15:20:52;;;;;;;17.77;11.63;;;;;;;6.93;69.95;99342.95;1708931;83;21084;-68
2022/12/10 15:23:31;;;;;;;;;;;;;;;6.86;70.18;99344.53;1719559;83;21128;-69
2022/12/10 15:26:06;;;;;;;17.07;11.22;;;;;;;6.94;70.19;99345.87;1716430;83;21824;-70
2022/12/10 15:28:36;;;;;;;14.03;10.08;;;;;;;6.83;70.47;99348.24;1708890;83;21476;-70
2022/12/10 15:31:31;;;;;;;16.27;11.20;;;;;;;6.92;70.27;99351.98;1705853;83;21069;-68
2022/12/10 15:34:11;;;;;;;19.17;11.33;;;;;;;6.89;70.38;99346.66;1708525;83;21520;-69
2022/12/10 15:36:51;;;;;;;17.15;10.68;;;;;;;6.93;70.36;99349.59;1706094;83;21027;-70
2022/12/10 15:39:29;;;;;;;17.65;11.00;;;;;;;6.89;70.41;99355.16;1704472;84;21861;-69
2022/12/10 15:42:05;;;;;;;19.25;11.28;;;;;;;6.92;70.47;99351.45;1713977;82;21048;-70
2022/12/10 15:44:42;;;;;;;17.17;10.93;;;;;;;6.95;70.39;99343.50;1716939;83;21021;-69
2022/12/10 15:47:25;;;;;;;21.27;14.00;;;;;;;6.93;70.37;99348.27;1690268;83;21497;-70
2022/12/10 15:49:54;;;;;;;31.35;16.90;;;;;;;6.92;70.45;99351.45;1687582;85;21017;-69
2022/12/10 15:52:28;;;;;;;25.82;17.67;;;;;;;6.91;70.53;99351.20;1687713;84;21532;-70
2022/12/10 15:54:56;;;;;;;26.87;16.73;;;;;;;6.93;70.56;99354.36;1687837;82;22180;-70
2022/12/10 15:57:30;;;;;;;29.07;18.37;;;;;;;6.96;70.62;99355.17;1687449;85;21474;-69